Terminal Aerodrome Forecast
Issued by NWS

Home | Current Version | Previous Version | Text Only | Print | Product List | Glossary On
Versions: 1 2 3 4 5 6 7 8 9 10 11 12 13 14 15 16 17 18 19
000
FTUS46 KLOX 192300
TAFPRB
TAF
KPRB 192322Z 2000/2024 21017G25KT P6SM SKC
     FM200300 21010KT P6SM SKC
     FM200700 VRB03KT P6SM OVC010
     FM201800 VRB03KT P6SM SKC
     FM202100 21014G20KT P6SM SKC=

USA.gov is the U.S. government's official web portal to all federal, state and local government web resources and services.